createdAt,value
2022-11-06T00:01:49.498Z,100.00
2022-11-06T00:04:51.379Z,100.00
2022-11-06T00:07:53.237Z,100.00
2022-11-06T00:10:55.253Z,100.00
2022-11-06T00:13:57.545Z,100.00
2022-11-06T00:16:59.329Z,100.00
2022-11-06T00:20:01.103Z,100.00
2022-11-06T00:23:03.093Z,100.00
2022-11-06T00:26:06.860Z,100.00
2022-11-06T00:29:08.640Z,100.00
2022-11-06T00:32:10.509Z,100.00
2022-11-06T00:35:12.332Z,100.00
2022-11-06T00:38:14.598Z,100.00
2022-11-06T00:41:17.554Z,100.00
2022-11-06T00:44:22.073Z,100.00
2022-11-06T00:57:12.246Z,100.00
2022-11-06T01:00:14.124Z,100.00
2022-11-06T01:03:15.694Z,100.00
2022-11-06T01:06:20.112Z,100.00
2022-11-06T01:09:24.394Z,100.00
2022-11-06T01:12:25.930Z,100.00
2022-11-06T01:15:27.454Z,100.00
2022-11-06T01:18:30.077Z,100.00
2022-11-06T01:21:34.989Z,100.00
2022-11-06T01:24:36.809Z,100.00
2022-11-06T01:27:38.420Z,100.00
2022-11-06T01:30:39.957Z,100.00
2022-11-06T01:33:41.932Z,100.00
2022-11-06T01:36:43.953Z,100.00
2022-11-06T01:39:45.452Z,100.00
2022-11-06T01:42:46.982Z,100.00
2022-11-06T01:45:50.754Z,100.00
2022-11-06T01:48:58.013Z,100.00
2022-11-06T01:52:04.732Z,100.00
2022-11-06T01:55:12.855Z,100.00
2022-11-06T01:58:17.395Z,100.00
2022-11-06T02:01:19.549Z,100.00
2022-11-06T02:04:24.724Z,100.00
2022-11-06T02:07:26.811Z,100.00
2022-11-06T02:10:29.672Z,100.00
2022-11-06T02:13:49.106Z,100.00
2022-11-06T02:17:01.960Z,100.00
2022-11-06T02:20:03.456Z,100.00
2022-11-06T02:23:47.146Z,100.00
2022-11-06T02:27:12.584Z,100.00
2022-11-06T02:30:16.717Z,100.00
2022-11-06T02:33:27.657Z,100.00
2022-11-06T02:36:34.021Z,100.00
2022-11-06T02:39:39.005Z,100.00
2022-11-06T02:42:46.431Z,100.00
2022-11-06T02:45:55.792Z,100.00
2022-11-06T02:49:04.107Z,100.00
2022-11-06T02:52:11.345Z,100.00
2022-11-06T02:55:19.823Z,100.00
2022-11-06T02:58:38.978Z,100.00
2022-11-06T03:01:49.720Z,100.00
2022-11-06T03:05:08.773Z,100.00
2022-11-06T03:08:24.097Z,100.00
2022-11-06T03:11:29.725Z,100.00
2022-11-06T03:14:36.481Z,100.00
2022-11-06T03:17:37.982Z,100.00
2022-11-06T03:20:55.576Z,100.00
2022-11-06T03:24:10.264Z,100.00
2022-11-06T03:27:17.011Z,100.00
2022-11-06T03:30:19.213Z,100.00
2022-11-06T03:33:38.214Z,100.00
2022-11-06T03:36:47.526Z,100.00
2022-11-06T03:39:53.883Z,100.00
2022-11-06T03:43:01.147Z,100.00
2022-11-06T03:46:11.241Z,100.00
2022-11-06T03:49:18.609Z,100.00
2022-11-06T03:52:28.771Z,100.00
2022-11-06T03:55:37.351Z,100.00
2022-11-06T03:58:44.421Z,100.00
2022-11-06T04:01:48.125Z,100.00
2022-11-06T04:04:59.636Z,100.00
2022-11-06T04:08:20.193Z,100.00
2022-11-06T04:11:44.506Z,100.00
2022-11-06T04:14:50.595Z,100.00
2022-11-06T04:17:52.145Z,100.00
2022-11-06T04:21:24.920Z,100.00
2022-11-06T04:25:13.543Z,100.00
2022-11-06T04:28:34.792Z,100.00
2022-11-06T04:32:04.025Z,100.00
2022-11-06T04:35:29.094Z,100.00
2022-11-06T04:39:05.103Z,100.00
2022-11-06T04:42:18.799Z,100.00
2022-11-06T04:45:34.659Z,100.00
2022-11-06T04:48:38.511Z,100.00
2022-11-06T04:51:43.326Z,100.00
2022-11-06T04:54:46.720Z,100.00
2022-11-06T04:57:48.528Z,100.00
2022-11-06T05:00:51.366Z,100.00
2022-11-06T05:03:52.957Z,100.00
2022-11-06T05:06:54.566Z,100.00
2022-11-06T05:09:56.110Z,100.00
2022-11-06T05:12:57.788Z,100.00
2022-11-06T05:16:00.176Z,100.00
2022-11-06T05:19:01.760Z,100.00
2022-11-06T05:22:22.116Z,100.00
2022-11-06T05:25:29.488Z,100.00
2022-11-06T05:28:31.324Z,100.00
2022-11-06T05:31:32.947Z,100.00
2022-11-06T05:34:34.465Z,100.00
2022-11-06T05:37:36.019Z,100.00
2022-11-06T05:40:37.533Z,100.00
2022-11-06T05:43:39.151Z,100.00
2022-11-06T05:46:48.817Z,100.00
2022-11-06T05:49:51.017Z,100.00
2022-11-06T05:52:52.547Z,100.00
2022-11-06T05:55:54.055Z,100.00
2022-11-06T05:58:55.579Z,100.00
2022-11-06T06:01:58.593Z,100.00
2022-11-06T06:05:00.197Z,100.00
2022-11-06T06:08:01.735Z,100.00
2022-11-06T06:11:09.949Z,100.00
2022-11-06T06:14:11.506Z,100.00
2022-11-06T06:17:13.054Z,100.00
2022-11-06T06:20:14.768Z,100.00
2022-11-06T06:23:16.263Z,100.00
2022-11-06T06:26:17.866Z,100.00
2022-11-06T06:29:19.403Z,100.00
2022-11-06T06:32:20.938Z,100.00
2022-11-06T06:35:22.478Z,100.00
2022-11-06T06:38:24.007Z,100.00
2022-11-06T06:41:25.538Z,100.00
2022-11-06T06:44:27.898Z,100.00
2022-11-06T06:47:29.417Z,100.00
2022-11-06T06:50:31.503Z,100.00
2022-11-06T06:53:33.241Z,100.00
2022-11-06T06:56:35.005Z,100.00
2022-11-06T06:59:36.796Z,100.00
2022-11-06T07:02:38.337Z,100.00
2022-11-06T07:05:40.210Z,100.00
2022-11-06T07:08:41.719Z,100.00
2022-11-06T07:11:43.250Z,100.00
2022-11-06T07:14:44.854Z,100.00
2022-11-06T07:17:46.617Z,100.00
2022-11-06T07:20:48.182Z,100.00
2022-11-06T07:23:49.696Z,100.00
2022-11-06T07:26:51.423Z,100.00
2022-11-06T07:29:52.960Z,100.00
2022-11-06T07:32:54.515Z,100.00
2022-11-06T07:35:56.505Z,100.00
2022-11-06T07:38:58.029Z,100.00
2022-11-06T07:41:59.588Z,100.00
2022-11-06T07:45:08.935Z,100.00
2022-11-06T07:48:10.547Z,100.00
2022-11-06T07:51:12.239Z,100.00
2022-11-06T07:54:13.813Z,100.00
2022-11-06T07:57:15.384Z,100.00
2022-11-06T08:00:17.172Z,100.00
2022-11-06T08:03:19.745Z,100.00
2022-11-06T08:06:21.315Z,100.00
2022-11-06T08:09:25.069Z,100.00
2022-11-06T08:12:26.731Z,100.00
2022-11-06T08:15:28.227Z,100.00
2022-11-06T08:18:29.741Z,100.00
2022-11-06T08:21:31.327Z,100.00
2022-11-06T08:24:32.867Z,100.00
2022-11-06T08:27:34.418Z,100.00
2022-11-06T08:30:35.985Z,100.00
2022-11-06T08:33:39.026Z,100.00
2022-11-06T08:36:49.300Z,100.00
2022-11-06T08:39:51.266Z,100.00
2022-11-06T08:42:52.848Z,100.00
2022-11-06T08:45:54.421Z,100.00
2022-11-06T08:48:56.009Z,100.00
2022-11-06T08:51:57.691Z,100.00
2022-11-06T08:54:59.215Z,100.00
2022-11-06T08:58:01.136Z,100.00
2022-11-06T09:01:02.916Z,100.00
2022-11-06T09:04:05.914Z,100.00
2022-11-06T09:07:07.846Z,100.00
2022-11-06T09:10:09.573Z,100.00
2022-11-06T09:13:11.919Z,100.00
2022-11-06T09:16:15.959Z,100.00
2022-11-06T09:19:18.005Z,100.00
2022-11-06T09:22:19.916Z,100.00
2022-11-06T09:25:21.920Z,100.00
2022-11-06T09:28:23.971Z,100.00
2022-11-06T09:31:25.684Z,100.00
2022-11-06T09:34:27.228Z,100.00
2022-11-06T09:37:28.746Z,100.00
2022-11-06T09:40:52.623Z,100.00
2022-11-06T09:44:30.604Z,100.00
2022-11-06T09:47:37.089Z,100.00
2022-11-06T09:50:49.875Z,100.00
2022-11-06T09:54:01.593Z,100.00
2022-11-06T09:57:39.082Z,100.00
2022-11-06T10:00:41.677Z,100.00
2022-11-06T10:03:48.760Z,100.00
2022-11-06T10:06:50.388Z,100.00
2022-11-06T10:09:51.880Z,100.00
2022-11-06T10:13:04.831Z,100.00
2022-11-06T10:16:18.372Z,100.00
2022-11-06T10:19:47.542Z,100.00
2022-11-06T10:23:22.012Z,100.00
2022-11-06T10:26:33.900Z,100.00
2022-11-06T10:30:06.485Z,100.00
2022-11-06T10:34:02.828Z,100.00
2022-11-06T10:37:11.930Z,100.00
2022-11-06T10:40:24.449Z,100.00
2022-11-06T10:43:38.680Z,100.00
2022-11-06T10:46:51.303Z,100.00
2022-11-06T10:49:59.139Z,100.00
2022-11-06T10:53:22.483Z,100.00
2022-11-06T10:56:39.511Z,100.00
2022-11-06T10:59:41.506Z,100.00
2022-11-06T11:02:51.353Z,100.00
2022-11-06T11:05:52.989Z,100.00
2022-11-06T11:08:54.606Z,100.00
2022-11-06T11:11:56.281Z,100.00
2022-11-06T11:15:38.190Z,100.00
2022-11-06T11:18:39.733Z,100.00
2022-11-06T11:21:58.893Z,100.00
2022-11-06T11:25:02.805Z,99.50
2022-11-06T11:28:05.103Z,100.00
2022-11-06T11:31:06.713Z,99.60
2022-11-06T11:34:17.525Z,99.93
2022-11-06T11:37:30.991Z,100.00
2022-11-06T11:40:37.802Z,99.02
2022-11-06T11:43:40.803Z,99.36
2022-11-06T11:46:48.306Z,98.04
2022-11-06T11:49:50.530Z,98.42
2022-11-06T11:53:19.993Z,98.51
2022-11-06T11:56:42.581Z,98.13
2022-11-06T11:59:48.572Z,98.30
2022-11-06T12:02:58.541Z,97.72
2022-11-06T12:06:11.350Z,97.13
2022-11-06T12:09:13.585Z,97.04
2022-11-06T12:12:31.264Z,96.54
2022-11-06T12:16:00.715Z,96.07
2022-11-06T12:19:03.245Z,95.80
2022-11-06T12:22:17.412Z,94.96
2022-11-06T12:25:42.459Z,95.19
2022-11-06T12:28:47.779Z,95.25
2022-11-06T12:31:59.502Z,94.63
2022-11-06T12:35:13.664Z,94.53
2022-11-06T12:38:33.975Z,94.57
2022-11-06T12:41:43.147Z,94.52
2022-11-06T12:44:47.162Z,94.44
2022-11-06T12:48:02.278Z,94.03
2022-11-06T12:51:17.451Z,94.00
2022-11-06T12:54:55.939Z,92.90
2022-11-06T12:58:08.815Z,93.85
2022-11-06T13:01:25.034Z,93.63
2022-11-06T13:04:29.599Z,93.33
2022-11-06T13:07:52.928Z,93.04
2022-11-06T13:11:00.145Z,93.07
2022-11-06T13:14:23.590Z,92.90
2022-11-06T13:17:32.206Z,92.01
2022-11-06T13:20:39.906Z,92.29
2022-11-06T13:23:50.263Z,92.65
2022-11-06T13:27:01.809Z,92.75
2022-11-06T13:30:14.907Z,93.06
2022-11-06T13:33:31.046Z,92.60
2022-11-06T13:36:36.897Z,92.32
2022-11-06T13:39:44.487Z,92.75
2022-11-06T13:42:56.609Z,90.97
2022-11-06T13:46:16.436Z,91.23
2022-11-06T13:49:46.555Z,90.83
2022-11-06T13:52:58.684Z,90.33
2022-11-06T13:56:29.823Z,90.59
2022-11-06T13:59:52.504Z,90.25
2022-11-06T14:03:15.497Z,89.82
2022-11-06T14:06:22.647Z,89.89
2022-11-06T14:09:27.531Z,89.53
2022-11-06T14:12:29.391Z,89.50
2022-11-06T14:15:41.677Z,89.46
2022-11-06T14:18:43.344Z,89.44
2022-11-06T14:21:52.103Z,88.84
2022-11-06T14:24:59.975Z,89.06
2022-11-06T14:28:05.201Z,88.74
2022-11-06T14:31:14.029Z,88.39
2022-11-06T14:34:32.063Z,88.04
2022-11-06T14:37:33.549Z,87.24
2022-11-06T14:40:36.403Z,87.55
2022-11-06T14:43:38.044Z,87.03
2022-11-06T14:46:39.870Z,87.17
2022-11-06T14:49:48.595Z,87.98
2022-11-06T14:52:55.604Z,87.12
2022-11-06T14:56:09.640Z,87.34
2022-11-06T14:59:28.836Z,87.65
2022-11-06T15:02:33.507Z,87.80
2022-11-06T15:05:42.025Z,87.90
2022-11-06T15:08:46.798Z,88.57
2022-11-06T15:11:49.387Z,88.10
2022-11-06T15:14:53.878Z,88.70
2022-11-06T15:17:58.242Z,88.93
2022-11-06T15:21:03.791Z,89.51
2022-11-06T15:24:22.560Z,89.51
2022-11-06T15:27:30.730Z,89.33
2022-11-06T15:30:46.032Z,90.43
2022-11-06T15:33:56.804Z,90.70
2022-11-06T15:37:11.900Z,90.87
2022-11-06T15:40:34.291Z,90.97
2022-11-06T15:43:37.470Z,90.89
2022-11-06T15:46:52.837Z,90.82
2022-11-06T15:50:13.615Z,91.69
2022-11-06T15:53:15.423Z,92.03
2022-11-06T15:56:20.562Z,92.44
2022-11-06T15:59:22.147Z,92.49
2022-11-06T16:02:23.900Z,92.98
2022-11-06T16:05:28.510Z,92.93
2022-11-06T16:08:31.515Z,92.94
2022-11-06T16:11:34.216Z,93.39
2022-11-06T16:14:40.690Z,93.19
2022-11-06T16:17:46.177Z,93.83
2022-11-06T16:20:50.947Z,94.38
2022-11-06T16:23:59.242Z,94.62
2022-11-06T16:27:05.452Z,94.48
2022-11-06T16:30:07.802Z,94.87
2022-11-06T16:33:21.397Z,95.08
2022-11-06T16:36:24.047Z,95.08
2022-11-06T16:39:40.138Z,95.12
2022-11-06T16:43:02.474Z,95.96
2022-11-06T16:46:08.270Z,95.84
2022-11-06T16:49:33.153Z,96.41
2022-11-06T16:52:39.821Z,95.87
2022-11-06T16:55:41.476Z,96.46
2022-11-06T16:59:11.369Z,97.03
2022-11-06T17:02:22.801Z,97.16
2022-11-06T17:05:27.542Z,97.04
2022-11-06T17:08:36.648Z,97.30
2022-11-06T17:11:38.776Z,97.61
2022-11-06T17:14:44.622Z,97.74
2022-11-06T17:17:46.332Z,97.84
2022-11-06T17:20:52.415Z,97.92
2022-11-06T17:23:54.063Z,98.15
2022-11-06T17:26:55.648Z,98.19
2022-11-06T17:29:57.235Z,98.12
2022-11-06T17:32:58.748Z,98.57
2022-11-06T17:36:00.461Z,98.54
2022-11-06T17:39:02.696Z,98.82
2022-11-06T17:42:04.295Z,99.06
2022-11-06T17:45:06.096Z,99.58
2022-11-06T17:48:07.672Z,99.39
2022-11-06T17:51:27.770Z,99.52
2022-11-06T17:54:34.464Z,100.00
2022-11-06T17:57:36.082Z,100.00
2022-11-06T18:00:39.503Z,100.00
2022-11-06T18:03:45.138Z,100.00
2022-11-06T18:06:49.023Z,100.00
2022-11-06T18:09:50.529Z,100.00
2022-11-06T18:12:52.400Z,100.00
2022-11-06T18:15:54.049Z,100.00
2022-11-06T18:18:56.737Z,100.00
2022-11-06T18:22:03.819Z,100.00
2022-11-06T18:25:07.959Z,100.00
2022-11-06T18:28:10.188Z,100.00
2022-11-06T18:31:11.767Z,100.00
2022-11-06T18:34:20.247Z,100.00
2022-11-06T18:37:25.593Z,100.00
2022-11-06T18:40:27.449Z,100.00
2022-11-06T18:43:29.139Z,100.00
2022-11-06T18:46:30.840Z,100.00
2022-11-06T18:49:32.331Z,100.00
2022-11-06T18:52:56.443Z,100.00
2022-11-06T18:55:55.322Z,100.00
2022-11-06T18:58:56.918Z,100.00
2022-11-06T19:01:58.670Z,100.00
2022-11-06T19:05:00.965Z,100.00
2022-11-06T19:08:03.802Z,100.00
2022-11-06T19:11:07.500Z,100.00
2022-11-06T19:14:09.148Z,100.00
2022-11-06T19:17:10.722Z,100.00
2022-11-06T19:20:14.930Z,100.00
2022-11-06T19:23:17.015Z,100.00
2022-11-06T19:26:31.015Z,100.00
2022-11-06T19:29:33.136Z,100.00
2022-11-06T19:32:34.792Z,100.00
2022-11-06T19:35:36.357Z,100.00
2022-11-06T19:38:37.911Z,100.00
2022-11-06T19:41:39.455Z,100.00
2022-11-06T19:44:40.973Z,100.00
2022-11-06T19:47:42.556Z,100.00
2022-11-06T19:51:04.460Z,100.00
2022-11-06T19:54:06.072Z,100.00
2022-11-06T19:57:28.246Z,100.00
2022-11-06T20:00:29.283Z,100.00
2022-11-06T20:03:30.845Z,100.00
2022-11-06T20:06:32.482Z,100.00
2022-11-06T20:09:34.643Z,100.00
2022-11-06T20:12:36.207Z,100.00
2022-11-06T20:15:37.824Z,100.00
2022-11-06T20:18:39.566Z,100.00
2022-11-06T20:21:41.331Z,99.76
2022-11-06T20:24:42.857Z,99.40
2022-11-06T20:27:44.488Z,99.62
2022-11-06T20:30:46.997Z,99.11
2022-11-06T20:33:49.537Z,97.62
2022-11-06T20:36:51.076Z,97.66
2022-11-06T20:39:52.665Z,97.22
2022-11-06T20:42:54.191Z,97.18
2022-11-06T20:45:59.162Z,96.50
2022-11-06T20:49:00.775Z,95.67
2022-11-06T20:52:15.513Z,95.28
2022-11-06T20:55:18.840Z,94.95
2022-11-06T20:58:23.738Z,93.51
2022-11-06T21:02:02.059Z,92.77
2022-11-06T21:05:06.803Z,91.08
2022-11-06T21:08:09.108Z,90.65
2022-11-06T21:11:26.737Z,89.72
2022-11-06T21:14:32.216Z,88.69
2022-11-06T21:17:38.705Z,88.67
2022-11-06T21:20:53.538Z,88.11
2022-11-06T21:24:11.176Z,87.59
2022-11-06T21:27:12.996Z,86.99
2022-11-06T21:30:25.994Z,86.07
2022-11-06T21:33:31.126Z,85.89
2022-11-06T21:36:44.611Z,85.19
2022-11-06T21:39:55.911Z,84.55
2022-11-06T21:43:04.366Z,84.26
2022-11-06T21:46:18.701Z,83.78
2022-11-06T21:53:15.215Z,83.14
2022-11-06T21:57:06.606Z,83.29
2022-11-06T22:01:04.492Z,84.11
2022-11-06T22:04:20.333Z,84.10
2022-11-06T22:08:01.266Z,85.32
2022-11-06T22:11:24.598Z,85.46
2022-11-06T22:14:34.547Z,86.77
2022-11-06T22:17:37.990Z,87.98
2022-11-06T22:20:43.136Z,89.24
2022-11-06T22:24:26.841Z,89.49
2022-11-06T22:27:28.637Z,89.82
2022-11-06T22:30:30.429Z,90.40
2022-11-06T22:33:36.051Z,90.53
2022-11-06T22:36:45.057Z,90.20
2022-11-06T22:39:52.814Z,90.61
2022-11-06T22:42:57.469Z,90.98
2022-11-06T22:46:01.262Z,91.01
2022-11-06T22:49:04.327Z,90.40
2022-11-06T22:52:06.268Z,90.83
2022-11-06T22:55:08.691Z,90.50
2022-11-06T22:58:12.811Z,89.88
2022-11-06T23:01:34.961Z,89.73
2022-11-06T23:04:47.172Z,90.30
2022-11-06T23:07:54.126Z,90.41
2022-11-06T23:10:59.266Z,90.09
2022-11-06T23:14:09.210Z,89.33
2022-11-06T23:17:14.016Z,89.02
2022-11-06T23:20:15.966Z,88.77
2022-11-06T23:23:17.837Z,87.93
2022-11-06T23:26:22.641Z,87.81
2022-11-06T23:29:24.633Z,87.71
2022-11-06T23:32:32.760Z,87.40
2022-11-06T23:35:34.580Z,86.52
2022-11-06T23:38:39.522Z,86.02
2022-11-06T23:41:46.251Z,86.00
2022-11-06T23:45:09.780Z,85.12
2022-11-06T23:48:13.495Z,84.77
2022-11-06T23:51:15.477Z,84.25
2022-11-06T23:54:17.704Z,83.94
2022-11-06T23:57:24.571Z,84.28
